Terminal Aerodrome Forecast
Issued by NWS

Home | Current Version | Previous Version | Text Only | Print | Product List | Glossary On
Versions: 1 2 3 4 5 6 7 8 9 10 11 12 13
000
FTUS45 KRIW 262320
TAFCPR
TAF
KCPR 262320Z 2700/2724 23011G18KT P6SM FEW100
     FM270300 17008KT P6SM SKC
     FM271100 21011KT P6SM SKC
     FM271500 22020G30KT P6SM SCT100
     FM272100 23025G35KT P6SM SKC=

USA.gov is the U.S. government's official web portal to all federal, state and local government web resources and services.